Time;durP1;ratioP1;P1;durP2;ratioP2;P2;SDS_P1;SDS_P2;PMS_P1;PMS_P2;Temp;Humidity;BMP_temperature;BMP_pressure;BME280_temperature;BME280_humidity;BME280_pressure;Samples;Min_cycle;Max_cycle;Signal;HPM_P1;HPM_P2
2023/03/18 00:02:17;;;;;;;15.48;13.85;;;;;;;;;;4189593;28;20083;-56
2023/03/18 00:04:37;;;;;;;30.50;24.02;;;;;;;;;;4191178;28;20113;-57
2023/03/18 00:06:58;;;;;;;23.98;19.67;;;;;;;;;;4191273;28;20079;-57
2023/03/18 00:09:18;;;;;;;20.17;17.52;;;;;;;;;;4193008;28;20071;-56
2023/03/18 00:11:39;;;;;;;25.70;19.40;;;;;;;;;;4191058;28;20044;-57
2023/03/18 00:13:59;;;;;;;17.35;15.63;;;;;;;;;;4193090;28;20039;-57
2023/03/18 00:16:20;;;;;;;18.98;17.02;;;;;;;;;;4190324;28;20478;-57
2023/03/18 00:18:40;;;;;;;17.38;15.77;;;;;;;;;;4191311;28;20044;-57
2023/03/18 00:21:00;;;;;;;16.98;15.18;;;;;;;;;;4191977;28;20374;-57
2023/03/18 00:23:21;;;;;;;17.92;16.40;;;;;;;;;;4193354;28;20048;-57
2023/03/18 00:25:41;;;;;;;19.30;15.98;;;;;;;;;;4190842;28;20048;-57
2023/03/18 00:28:03;;;;;;;17.90;15.93;;;;;;;;;;4189290;28;20370;-57
2023/03/18 00:30:24;;;;;;;17.15;15.35;;;;;;;;;;4192688;28;20383;-56
2023/03/18 00:32:45;;;;;;;18.10;16.55;;;;;;;;;;4190888;28;20064;-56
2023/03/18 00:35:05;;;;;;;27.85;19.42;;;;;;;;;;4191447;28;20071;-57
2023/03/18 00:37:32;;;;;;;17.77;16.02;;;;;;;;;;4190294;28;20298;-57
2023/03/18 00:39:53;;;;;;;18.90;16.95;;;;;;;;;;4192365;28;20082;-59
2023/03/18 00:42:13;;;;;;;23.45;16.92;;;;;;;;;;4189433;28;20052;-59
2023/03/18 00:44:33;;;;;;;18.45;14.77;;;;;;;;;;4190398;28;20111;-59
2023/03/18 00:46:54;;;;;;;22.02;18.15;;;;;;;;;;4191452;28;20236;-59
2023/03/18 00:49:16;;;;;;;20.35;18.02;;;;;;;;;;4190586;28;20056;-59
2023/03/18 00:51:37;;;;;;;19.05;17.25;;;;;;;;;;4188801;28;20071;-59
2023/03/18 00:53:59;;;;;;;18.67;16.73;;;;;;;;;;4189602;28;20091;-59
2023/03/18 00:56:21;;;;;;;17.98;16.35;;;;;;;;;;4189865;28;20051;-59
2023/03/18 00:58:41;;;;;;;19.95;17.95;;;;;;;;;;4190050;28;20338;-59
2023/03/18 01:01:01;;;;;;;18.02;16.13;;;;;;;;;;4189464;28;20064;-59
2023/03/18 01:03:24;;;;;;;19.77;17.77;;;;;;;;;;4189730;28;20044;-59
2023/03/18 01:05:44;;;;;;;17.17;15.30;;;;;;;;;;4190610;28;20051;-59
2023/03/18 01:08:05;;;;;;;16.27;14.88;;;;;;;;;;4190686;28;20051;-59
2023/03/18 01:10:26;;;;;;;16.40;15.07;;;;;;;;;;4189881;28;20098;-59
2023/03/18 01:12:46;;;;;;;16.13;14.70;;;;;;;;;;4190551;28;20140;-59
2023/03/18 01:15:08;;;;;;;16.63;15.15;;;;;;;;;;4191274;28;20051;-59
2023/03/18 01:17:28;;;;;;;15.95;14.30;;;;;;;;;;4194574;28;20051;-59
2023/03/18 01:19:49;;;;;;;12.82;12.00;;;;;;;;;;4191465;28;20123;-59
2023/03/18 01:22:09;;;;;;;13.82;12.70;;;;;;;;;;4192598;28;20052;-59
2023/03/18 01:24:29;;;;;;;16.95;15.55;;;;;;;;;;4194959;28;20043;-59
2023/03/18 01:26:49;;;;;;;21.45;18.73;;;;;;;;;;4191867;28;20075;-59
2023/03/18 01:29:09;;;;;;;18.60;17.00;;;;;;;;;;4190758;28;20263;-59
2023/03/18 01:31:30;;;;;;;17.50;15.07;;;;;;;;;;4194951;28;20048;-59
2023/03/18 01:33:50;;;;;;;14.32;13.02;;;;;;;;;;4193934;28;20043;-59
2023/03/18 01:36:10;;;;;;;14.68;13.65;;;;;;;;;;4192069;28;20099;-59
2023/03/18 01:38:31;;;;;;;16.38;15.10;;;;;;;;;;4193138;28;20220;-60
2023/03/18 01:40:53;;;;;;;16.23;14.77;;;;;;;;;;4194821;28;20393;-59
2023/03/18 01:43:15;;;;;;;15.90;14.70;;;;;;;;;;4193539;28;20086;-59
2023/03/18 01:45:36;;;;;;;14.70;13.68;;;;;;;;;;4192224;28;20481;-59
2023/03/18 01:47:57;;;;;;;15.55;14.20;;;;;;;;;;4188374;28;20059;-59
2023/03/18 01:50:36;;;;;;;13.77;12.85;;;;;;;;;;4192672;28;20039;-59
2023/03/18 01:53:17;;;;;;;12.23;11.48;;;;;;;;;;4195201;28;20228;-59
2023/03/18 01:55:38;;;;;;;13.48;12.70;;;;;;;;;;4192875;28;20052;-59
2023/03/18 01:58:00;;;;;;;13.25;12.23;;;;;;;;;;4193048;28;20399;-59
2023/03/18 02:00:22;;;;;;;13.95;13.15;;;;;;;;;;4194238;28;20044;-56
2023/03/18 02:02:43;;;;;;;14.40;13.23;;;;;;;;;;4189791;28;20044;-56
2023/03/18 02:05:05;;;;;;;15.25;14.18;;;;;;;;;;4193213;28;20048;-56
2023/03/18 02:07:28;;;;;;;14.43;13.18;;;;;;;;;;4194063;28;20055;-56
2023/03/18 02:09:49;;;;;;;13.27;12.48;;;;;;;;;;4195684;28;20040;-57
2023/03/18 02:12:11;;;;;;;13.95;13.05;;;;;;;;;;4193029;28;20083;-56
2023/03/18 02:14:31;;;;;;;11.98;11.18;;;;;;;;;;4191162;28;20263;-56
2023/03/18 02:17:02;;;;;;;14.38;13.30;;;;;;;;;;4195080;28;20048;-56
2023/03/18 02:19:35;;;;;;;13.45;12.30;;;;;;;;;;4191124;28;20124;-57
2023/03/18 02:21:59;;;;;;;14.13;13.48;;;;;;;;;;4191492;28;20367;-56
2023/03/18 02:24:38;;;;;;;14.05;13.00;;;;;;;;;;4191557;28;20037;-56
2023/03/18 02:27:00;;;;;;;12.75;12.05;;;;;;;;;;4190845;28;20044;-57
2023/03/18 02:29:21;;;;;;;13.02;12.30;;;;;;;;;;4191741;28;20112;-57
2023/03/18 02:31:42;;;;;;;14.38;13.52;;;;;;;;;;4192454;28;20072;-56
2023/03/18 02:34:02;;;;;;;13.80;12.68;;;;;;;;;;4192154;28;20409;-56
2023/03/18 02:36:24;;;;;;;13.52;12.45;;;;;;;;;;4192125;28;20083;-56
2023/03/18 02:38:44;;;;;;;13.20;12.35;;;;;;;;;;4191571;28;20035;-57
2023/03/18 02:41:04;;;;;;;12.77;11.82;;;;;;;;;;4192841;28;20056;-56
2023/03/18 02:43:26;;;;;;;12.57;11.88;;;;;;;;;;4191446;28;20098;-57
2023/03/18 02:46:01;;;;;;;12.55;11.80;;;;;;;;;;4193674;28;20052;-57
2023/03/18 02:48:23;;;;;;;13.30;12.55;;;;;;;;;;4192001;28;20044;-57
2023/03/18 02:50:44;;;;;;;13.07;12.30;;;;;;;;;;4191447;28;20060;-56
2023/03/18 02:53:05;;;;;;;15.20;13.40;;;;;;;;;;4193490;28;20055;-57
2023/03/18 02:55:26;;;;;;;14.40;13.57;;;;;;;;;;4192360;28;20059;-56
2023/03/18 02:57:46;;;;;;;14.43;13.35;;;;;;;;;;4189643;28;20055;-56
2023/03/18 03:00:08;;;;;;;15.05;13.68;;;;;;;;;;4193421;28;20382;-57
2023/03/18 03:02:28;;;;;;;13.13;12.23;;;;;;;;;;4194943;28;20102;-56
2023/03/18 03:04:49;;;;;;;12.65;11.88;;;;;;;;;;4192907;28;20252;-56
2023/03/18 03:07:09;;;;;;;13.30;12.50;;;;;;;;;;4191502;28;20052;-57
2023/03/18 03:09:29;;;;;;;11.73;11.10;;;;;;;;;;4193564;28;20068;-56
2023/03/18 03:11:50;;;;;;;15.52;14.52;;;;;;;;;;4195216;28;20090;-56
2023/03/18 03:14:10;;;;;;;16.23;14.48;;;;;;;;;;4190769;28;20106;-56
2023/03/18 03:16:31;;;;;;;14.45;13.75;;;;;;;;;;4189581;28;20040;-56
2023/03/18 03:18:51;;;;;;;12.90;11.90;;;;;;;;;;4193983;28;20078;-56
2023/03/18 03:21:12;;;;;;;14.98;13.88;;;;;;;;;;4192734;28;20048;-56
2023/03/18 03:23:32;;;;;;;13.23;12.32;;;;;;;;;;4189748;28;20078;-57
2023/03/18 03:25:52;;;;;;;11.60;11.10;;;;;;;;;;4192532;28;20087;-56
2023/03/18 03:28:13;;;;;;;13.30;12.65;;;;;;;;;;4192535;28;20378;-57
2023/03/18 03:30:33;;;;;;;13.18;12.38;;;;;;;;;;4190886;28;20244;-56
2023/03/18 03:32:54;;;;;;;13.95;12.98;;;;;;;;;;4191646;28;20119;-57
2023/03/18 03:35:15;;;;;;;12.63;11.90;;;;;;;;;;4191398;28;20052;-56
2023/03/18 03:37:35;;;;;;;13.80;12.60;;;;;;;;;;4192464;28;20094;-57
2023/03/18 03:39:55;;;;;;;14.60;13.57;;;;;;;;;;4191060;28;20072;-56
2023/03/18 03:42:15;;;;;;;13.35;12.35;;;;;;;;;;4188968;28;20101;-56
2023/03/18 03:44:36;;;;;;;15.52;14.15;;;;;;;;;;4190416;28;20043;-57
2023/03/18 03:46:56;;;;;;;15.43;14.32;;;;;;;;;;4200118;28;20408;-56
2023/03/18 03:49:16;;;;;;;13.85;13.02;;;;;;;;;;4189347;28;20071;-56
2023/03/18 03:51:36;;;;;;;12.65;11.95;;;;;;;;;;4190888;28;20048;-57
2023/03/18 03:53:56;;;;;;;13.57;12.40;;;;;;;;;;4191070;28;20155;-56
2023/03/18 03:56:17;;;;;;;12.43;11.70;;;;;;;;;;4189855;28;20044;-56
2023/03/18 03:58:37;;;;;;;11.15;10.50;;;;;;;;;;4189180;28;20047;-57
2023/03/18 04:00:58;;;;;;;12.88;12.32;;;;;;;;;;4190761;28;20366;-56
2023/03/18 04:03:19;;;;;;;10.85;10.45;;;;;;;;;;4191873;28;20044;-56
2023/03/18 04:05:40;;;;;;;11.25;10.65;;;;;;;;;;4191023;28;20048;-57
2023/03/18 04:08:00;;;;;;;14.82;14.00;;;;;;;;;;4191990;28;20279;-56
2023/03/18 04:10:21;;;;;;;13.93;13.02;;;;;;;;;;4191385;28;20267;-57
2023/03/18 04:12:42;;;;;;;14.10;13.27;;;;;;;;;;4192362;28;20048;-56
2023/03/18 04:15:02;;;;;;;14.18;13.23;;;;;;;;;;4190262;28;20099;-56
2023/03/18 04:17:22;;;;;;;13.77;12.77;;;;;;;;;;4192504;28;20110;-56
2023/03/18 04:19:42;;;;;;;14.98;14.30;;;;;;;;;;4190771;28;20233;-56
2023/03/18 04:22:03;;;;;;;12.20;11.60;;;;;;;;;;4189966;28;20231;-56
2023/03/18 04:24:23;;;;;;;12.68;12.07;;;;;;;;;;4191281;28;20055;-57
2023/03/18 04:26:43;;;;;;;11.20;10.68;;;;;;;;;;4190797;28;20406;-57
2023/03/18 04:29:03;;;;;;;11.38;10.77;;;;;;;;;;4190888;28;20051;-57
2023/03/18 04:31:23;;;;;;;12.20;11.70;;;;;;;;;;4190710;28;20111;-56
2023/03/18 04:33:44;;;;;;;12.77;11.98;;;;;;;;;;4191544;28;20402;-57
2023/03/18 04:36:04;;;;;;;11.57;11.00;;;;;;;;;;4190138;28;20187;-56
2023/03/18 04:38:27;;;;;;;11.70;11.25;;;;;;;;;;4191351;28;20105;-57
2023/03/18 04:40:47;;;;;;;18.35;16.65;;;;;;;;;;4189368;28;20056;-56
2023/03/18 04:43:08;;;;;;;14.10;12.95;;;;;;;;;;4191840;28;20087;-57
2023/03/18 04:45:29;;;;;;;17.15;16.05;;;;;;;;;;4188249;28;20044;-57
2023/03/18 04:47:49;;;;;;;17.77;16.60;;;;;;;;;;4191517;28;20060;-56
2023/03/18 04:50:11;;;;;;;20.90;19.25;;;;;;;;;;4189251;28;20080;-57
2023/03/18 04:52:32;;;;;;;18.17;16.50;;;;;;;;;;4189972;28;20126;-57
2023/03/18 04:54:53;;;;;;;16.00;14.85;;;;;;;;;;4189960;28;20040;-56
2023/03/18 04:57:15;;;;;;;14.00;12.82;;;;;;;;;;4190664;28;20063;-56
2023/03/18 04:59:35;;;;;;;13.38;12.23;;;;;;;;;;4188520;28;20048;-56
2023/03/18 05:01:55;;;;;;;13.05;12.27;;;;;;;;;;4191921;28;20043;-56
2023/03/18 05:04:15;;;;;;;14.75;13.50;;;;;;;;;;4188868;28;20068;-56
2023/03/18 05:06:36;;;;;;;13.55;12.75;;;;;;;;;;4190363;28;20048;-56
2023/03/18 05:08:56;;;;;;;13.27;12.32;;;;;;;;;;4188904;28;20051;-57
2023/03/18 05:11:17;;;;;;;15.00;14.07;;;;;;;;;;4188262;28;20060;-57
2023/03/18 05:13:39;;;;;;;13.27;12.38;;;;;;;;;;4187304;28;20288;-56
2023/03/18 05:15:59;;;;;;;11.35;10.88;;;;;;;;;;4189916;28;20047;-56
2023/03/18 05:18:19;;;;;;;12.85;12.15;;;;;;;;;;4189524;28;20044;-57
2023/03/18 05:20:40;;;;;;;14.70;14.10;;;;;;;;;;4188109;28;20091;-56
2023/03/18 05:23:00;;;;;;;11.65;10.95;;;;;;;;;;4190091;28;20078;-56
2023/03/18 05:25:21;;;;;;;12.80;11.98;;;;;;;;;;4190457;28;20086;-56
2023/03/18 05:27:41;;;;;;;12.88;12.25;;;;;;;;;;4190470;28;20244;-56
2023/03/18 05:30:01;;;;;;;11.60;11.02;;;;;;;;;;4189690;28;20256;-56
2023/03/18 05:32:21;;;;;;;14.02;13.32;;;;;;;;;;4189996;28;20390;-56
2023/03/18 05:34:42;;;;;;;15.70;14.68;;;;;;;;;;4190691;28;20071;-56
2023/03/18 05:37:07;;;;;;;14.50;13.68;;;;;;;;;;4191318;28;20156;-56
2023/03/18 05:39:27;;;;;;;13.23;12.30;;;;;;;;;;4188607;28;20281;-56
2023/03/18 05:41:47;;;;;;;14.05;13.13;;;;;;;;;;4188763;28;20285;-56
2023/03/18 05:44:07;;;;;;;14.23;13.45;;;;;;;;;;4191476;28;20040;-56
2023/03/18 05:46:27;;;;;;;14.98;14.00;;;;;;;;;;4189811;28;20072;-57
2023/03/18 05:48:48;;;;;;;15.82;14.48;;;;;;;;;;4188679;28;20244;-57
2023/03/18 05:51:08;;;;;;;12.23;11.63;;;;;;;;;;4190613;28;20048;-56
2023/03/18 05:53:29;;;;;;;12.85;12.05;;;;;;;;;;4189432;28;20060;-56
2023/03/18 05:55:49;;;;;;;11.68;11.02;;;;;;;;;;4191419;28;20079;-56
2023/03/18 05:58:10;;;;;;;13.57;12.80;;;;;;;;;;4187480;28;20079;-56
2023/03/18 06:00:30;;;;;;;11.77;11.15;;;;;;;;;;4190158;28;20059;-56
2023/03/18 06:02:53;;;;;;;12.70;11.80;;;;;;;;;;4192077;28;20462;-57
2023/03/18 06:05:14;;;;;;;10.65;10.30;;;;;;;;;;4195036;28;20237;-56
2023/03/18 06:07:35;;;;;;;13.05;11.90;;;;;;;;;;4189836;28;20096;-56
2023/03/18 06:09:56;;;;;;;17.40;15.93;;;;;;;;;;4194061;28;20107;-57
2023/03/18 06:12:19;;;;;;;16.63;15.07;;;;;;;;;;4195102;28;20048;-56
2023/03/18 06:14:39;;;;;;;14.88;13.80;;;;;;;;;;4195595;28;20090;-57
2023/03/18 06:16:59;;;;;;;14.00;13.13;;;;;;;;;;4194142;28;20048;-57
2023/03/18 06:19:20;;;;;;;16.13;15.10;;;;;;;;;;4194357;28;20043;-56
2023/03/18 06:21:40;;;;;;;15.32;14.23;;;;;;;;;;4197294;28;20095;-56
2023/03/18 06:24:01;;;;;;;15.93;14.82;;;;;;;;;;4188607;28;20100;-56
2023/03/18 06:26:21;;;;;;;15.55;14.75;;;;;;;;;;4192894;28;20071;-58
2023/03/18 06:28:42;;;;;;;16.38;15.35;;;;;;;;;;4194296;28;20044;-57
2023/03/18 06:31:02;;;;;;;20.38;18.73;;;;;;;;;;4193135;28;20063;-57
2023/03/18 06:33:24;;;;;;;15.95;14.73;;;;;;;;;;4192435;28;20075;-57
2023/03/18 06:35:44;;;;;;;13.57;12.65;;;;;;;;;;4190050;28;20712;-57
2023/03/18 06:38:04;;;;;;;13.50;12.95;;;;;;;;;;4191534;28;20236;-57
2023/03/18 06:40:25;;;;;;;12.48;11.65;;;;;;;;;;4189696;28;20048;-57
2023/03/18 06:42:45;;;;;;;12.35;11.80;;;;;;;;;;4191769;28;20300;-58
2023/03/18 06:45:07;;;;;;;8.65;8.35;;;;;;;;;;4191633;28;20369;-57
2023/03/18 06:47:27;;;;;;;10.32;9.82;;;;;;;;;;4192218;28;20249;-58
2023/03/18 06:49:48;;;;;;;12.10;11.50;;;;;;;;;;4192433;28;20386;-58
2023/03/18 06:52:08;;;;;;;11.57;11.07;;;;;;;;;;4191657;28;20047;-58
2023/03/18 06:54:28;;;;;;;9.50;9.10;;;;;;;;;;4192164;28;20052;-58
2023/03/18 06:56:48;;;;;;;11.13;10.45;;;;;;;;;;4192524;28;20052;-59
2023/03/18 06:59:09;;;;;;;10.05;9.45;;;;;;;;;;4191608;28;20228;-58
2023/03/18 07:01:31;;;;;;;9.70;9.40;;;;;;;;;;4192095;28;20048;-58
2023/03/18 07:03:51;;;;;;;10.80;10.23;;;;;;;;;;4193161;28;20078;-58
2023/03/18 07:06:12;;;;;;;12.35;11.65;;;;;;;;;;4192827;28;20047;-59
2023/03/18 07:08:33;;;;;;;12.23;10.50;;;;;;;;;;4191773;28;20428;-58
2023/03/18 07:10:53;;;;;;;10.10;9.60;;;;;;;;;;4192125;28;20051;-58
2023/03/18 07:13:17;;;;;;;13.00;12.20;;;;;;;;;;4193438;28;20363;-59
2023/03/18 07:15:38;;;;;;;9.20;8.85;;;;;;;;;;4193789;28;20303;-59
2023/03/18 07:17:59;;;;;;;12.18;11.32;;;;;;;;;;4190959;28;20151;-58
2023/03/18 07:20:21;;;;;;;10.57;9.75;;;;;;;;;;4192569;28;20082;-59
2023/03/18 07:22:42;;;;;;;12.20;11.20;;;;;;;;;;4194085;28;20052;-59
2023/03/18 07:25:03;;;;;;;10.88;10.35;;;;;;;;;;4190216;28;20040;-58
2023/03/18 07:27:23;;;;;;;16.85;15.02;;;;;;;;;;4190388;28;20224;-58
2023/03/18 07:29:44;;;;;;;17.73;14.48;;;;;;;;;;4192682;28;20052;-59
2023/03/18 07:32:04;;;;;;;13.90;12.60;;;;;;;;;;4192998;28;20424;-58
2023/03/18 07:34:26;;;;;;;14.68;13.52;;;;;;;;;;4189269;28;20116;-58
2023/03/18 07:36:46;;;;;;;15.90;14.52;;;;;;;;;;4190596;28;20082;-58
2023/03/18 07:39:06;;;;;;;15.80;14.40;;;;;;;;;;4191791;28;20091;-58
2023/03/18 07:41:27;;;;;;;14.82;13.25;;;;;;;;;;4192781;28;20048;-58
2023/03/18 07:43:47;;;;;;;13.90;12.75;;;;;;;;;;4190621;28;20059;-59
2023/03/18 07:46:08;;;;;;;11.38;10.75;;;;;;;;;;4188909;28;20095;-58
2023/03/18 07:48:29;;;;;;;10.55;9.95;;;;;;;;;;4192078;28;20391;-58
2023/03/18 07:50:49;;;;;;;11.80;10.95;;;;;;;;;;4194148;28;20420;-58
2023/03/18 07:53:11;;;;;;;11.70;10.90;;;;;;;;;;4190180;28;20278;-58
2023/03/18 07:55:31;;;;;;;13.45;12.25;;;;;;;;;;4190948;28;20410;-58
2023/03/18 07:57:54;;;;;;;10.00;9.02;;;;;;;;;;4178346;28;20109;-59
2023/03/18 08:00:14;;;;;;;10.32;9.48;;;;;;;;;;4191808;28;20371;-59
2023/03/18 08:02:35;;;;;;;9.02;8.52;;;;;;;;;;4188696;28;20239;-58
2023/03/18 08:04:56;;;;;;;11.43;10.70;;;;;;;;;;4190441;28;20056;-58
2023/03/18 08:07:17;;;;;;;8.45;8.05;;;;;;;;;;4189822;28;20104;-58
2023/03/18 08:09:38;;;;;;;4.70;4.60;;;;;;;;;;4190563;28;20051;-58
2023/03/18 08:11:59;;;;;;;6.95;6.47;;;;;;;;;;4190541;28;20047;-58
2023/03/18 08:14:19;;;;;;;7.35;6.72;;;;;;;;;;4190668;28;20109;-58
2023/03/18 08:16:39;;;;;;;8.57;7.93;;;;;;;;;;4189923;28;20048;-59
2023/03/18 08:18:59;;;;;;;5.93;5.63;;;;;;;;;;4191367;28;20394;-58
2023/03/18 08:21:19;;;;;;;4.22;3.95;;;;;;;;;;4191060;28;20071;-59
2023/03/18 08:23:40;;;;;;;4.50;4.13;;;;;;;;;;4190532;28;20075;-59
2023/03/18 08:26:01;;;;;;;5.13;5.03;;;;;;;;;;4190423;28;20051;-59
2023/03/18 08:28:22;;;;;;;4.75;4.65;;;;;;;;;;4191328;28;20051;-59
2023/03/18 08:30:42;;;;;;;5.68;5.28;;;;;;;;;;4191496;28;20256;-59
2023/03/18 08:33:02;;;;;;;4.10;4.00;;;;;;;;;;4190149;28;20056;-58
2023/03/18 08:35:23;;;;;;;4.30;3.67;;;;;;;;;;4189491;28;20067;-59
2023/03/18 08:37:43;;;;;;;4.82;4.53;;;;;;;;;;4191764;28;20044;-59
2023/03/18 08:40:04;;;;;;;4.55;4.40;;;;;;;;;;4190980;28;20075;-59
2023/03/18 08:42:24;;;;;;;4.35;4.25;;;;;;;;;;4192547;28;20079;-59
2023/03/18 08:44:44;;;;;;;5.50;5.13;;;;;;;;;;4189815;28;20127;-59
2023/03/18 08:47:05;;;;;;;3.97;3.88;;;;;;;;;;4192565;28;20067;-58
2023/03/18 08:49:25;;;;;;;4.50;4.22;;;;;;;;;;4189141;28;20133;-58
2023/03/18 08:51:46;;;;;;;3.50;3.50;;;;;;;;;;4192269;28;20267;-59
2023/03/18 08:54:07;;;;;;;3.70;3.55;;;;;;;;;;4190780;28;20043;-59
2023/03/18 08:56:27;;;;;;;5.72;5.43;;;;;;;;;;4190947;28;20048;-60
2023/03/18 08:58:48;;;;;;;3.45;3.35;;;;;;;;;;4190876;28;20267;-59
2023/03/18 09:01:08;;;;;;;5.38;4.05;;;;;;;;;;4190749;28;20107;-59
2023/03/18 09:03:33;;;;;;;3.25;3.00;;;;;;;;;;4189145;28;20075;-59
2023/03/18 09:05:54;;;;;;;3.83;3.63;;;;;;;;;;4190739;28;20043;-59
2023/03/18 09:08:14;;;;;;;3.13;2.97;;;;;;;;;;4189961;28;20239;-59
2023/03/18 09:10:34;;;;;;;3.45;3.17;;;;;;;;;;4191028;28;20052;-58
2023/03/18 09:12:54;;;;;;;2.78;2.75;;;;;;;;;;4190744;28;20090;-59
2023/03/18 09:15:15;;;;;;;2.85;2.58;;;;;;;;;;4190818;28;20178;-59
2023/03/18 09:17:39;;;;;;;2.97;2.88;;;;;;;;;;4188079;28;20095;-60
2023/03/18 09:20:19;;;;;;;11.75;4.72;;;;;;;;;;4190871;28;20083;-59
2023/03/18 09:22:40;;;;;;;3.60;3.40;;;;;;;;;;4191828;28;20051;-59
2023/03/18 09:25:00;;;;;;;4.72;3.80;;;;;;;;;;4190030;28;20044;-59
2023/03/18 09:27:20;;;;;;;2.85;2.50;;;;;;;;;;4189235;28;20292;-59
2023/03/18 09:29:40;;;;;;;2.72;2.63;;;;;;;;;;4189164;28;20060;-59
2023/03/18 09:32:00;;;;;;;3.17;3.03;;;;;;;;;;4189580;28;20078;-59
2023/03/18 09:34:21;;;;;;;2.55;2.55;;;;;;;;;;4189678;28;20064;-59
2023/03/18 09:36:42;;;;;;;3.08;2.88;;;;;;;;;;4190174;28;20223;-59
2023/03/18 09:39:02;;;;;;;3.08;2.80;;;;;;;;;;4192647;28;20302;-59
2023/03/18 09:41:41;;;;;;;3.05;2.85;;;;;;;;;;4192401;28;20086;-59
2023/03/18 09:44:07;;;;;;;2.83;2.63;;;;;;;;;;4192698;28;20113;-59
2023/03/18 09:46:32;;;;;;;2.85;2.65;;;;;;;;;;4193002;28;20439;-59
2023/03/18 09:48:55;;;;;;;3.67;2.38;;;;;;;;;;4193614;28;20127;-59
2023/03/18 09:51:42;;;;;;;2.78;2.65;;;;;;;;;;4192433;28;20117;-59
2023/03/18 09:54:13;;;;;;;2.75;2.47;;;;;;;;;;4177979;28;20063;-59
2023/03/18 09:56:35;;;;;;;2.28;1.92;;;;;;;;;;4193643;28;20094;-60
2023/03/18 09:59:02;;;;;;;2.20;2.20;;;;;;;;;;4194110;28;20052;-59
2023/03/18 10:01:23;;;;;;;2.47;2.38;;;;;;;;;;4193519;28;20048;-59
2023/03/18 10:03:53;;;;;;;3.00;2.80;;;;;;;;;;4192521;28;20055;-59
2023/03/18 10:06:19;;;;;;;4.35;3.20;;;;;;;;;;4193754;28;20040;-59
2023/03/18 10:08:51;;;;;;;3.28;2.13;;;;;;;;;;4194259;28;20035;-59
2023/03/18 10:11:31;;;;;;;2.80;2.70;;;;;;;;;;4191025;28;20056;-59
2023/03/18 10:13:55;;;;;;;2.97;2.50;;;;;;;;;;4193980;28;20051;-59
2023/03/18 10:16:20;;;;;;;2.53;2.42;;;;;;;;;;4195644;28;20055;-59
2023/03/18 10:18:42;;;;;;;2.65;2.55;;;;;;;;;;4193625;28;20067;-59
2023/03/18 10:21:03;;;;;;;2.47;2.37;;;;;;;;;;4192789;28;20191;-59
2023/03/18 10:23:43;;;;;;;3.65;2.10;;;;;;;;;;4194802;28;20286;-59
2023/03/18 10:26:20;;;;;;;2.65;2.45;;;;;;;;;;4190768;28;20048;-60
2023/03/18 10:28:48;;;;;;;2.15;2.05;;;;;;;;;;4191904;28;20087;-59
2023/03/18 10:31:08;;;;;;;3.05;2.65;;;;;;;;;;4193448;28;20239;-60
2023/03/18 10:33:45;;;;;;;2.20;2.10;;;;;;;;;;4194780;28;20302;-59
2023/03/18 10:36:12;;;;;;;2.42;1.67;;;;;;;;;;4191767;28;20040;-60
2023/03/18 10:38:41;;;;;;;1.98;1.88;;;;;;;;;;4192462;28;20107;-60
2023/03/18 10:41:01;;;;;;;2.38;2.28;;;;;;;;;;4194284;28;20056;-60
2023/03/18 10:43:23;;;;;;;2.28;2.17;;;;;;;;;;4193517;28;20047;-60
2023/03/18 10:45:45;;;;;;;2.25;2.15;;;;;;;;;;4192523;28;20086;-59
2023/03/18 10:48:10;;;;;;;2.03;2.03;;;;;;;;;;4190512;28;20248;-59
2023/03/18 10:50:38;;;;;;;2.38;2.20;;;;;;;;;;4191510;28;20048;-59
2023/03/18 10:53:21;;;;;;;2.50;2.40;;;;;;;;;;4190984;28;20229;-59
2023/03/18 10:56:07;;;;;;;2.13;2.03;;;;;;;;;;4190302;28;20048;-59
2023/03/18 10:58:28;;;;;;;2.70;2.60;;;;;;;;;;4189173;28;20078;-60
2023/03/18 11:00:50;;;;;;;2.55;2.45;;;;;;;;;;4191850;28;20052;-60
2023/03/18 11:03:18;;;;;;;2.85;2.65;;;;;;;;;;4190344;28;20055;-60
2023/03/18 11:05:38;;;;;;;2.63;2.45;;;;;;;;;;4190538;28;20044;-59
2023/03/18 11:08:01;;;;;;;2.95;2.75;;;;;;;;;;4191257;28;20060;-60
2023/03/18 11:10:24;;;;;;;1.95;1.85;;;;;;;;;;4191616;28;20048;-60
2023/03/18 11:12:44;;;;;;;;;;;;;;;;;;4191548;28;20044;-59
2023/03/18 11:15:09;;;;;;;2.80;2.70;;;;;;;;;;4192060;28;19939;-59
2023/03/18 11:17:34;;;;;;;2.65;2.55;;;;;;;;;;4193909;28;20104;-60
2023/03/18 11:20:13;;;;;;;3.45;2.17;;;;;;;;;;4191304;28;20048;-60
2023/03/18 11:22:35;;;;;;;2.63;2.10;;;;;;;;;;4190303;28;20072;-60
2023/03/18 11:25:00;;;;;;;2.92;2.00;;;;;;;;;;4193400;28;20098;-59
2023/03/18 11:27:21;;;;;;;2.13;2.05;;;;;;;;;;4192575;28;20036;-60
2023/03/18 11:29:44;;;;;;;1.98;1.88;;;;;;;;;;4191680;28;20055;-59
2023/03/18 11:32:22;;;;;;;2.75;2.65;;;;;;;;;;4191674;28;20059;-60
2023/03/18 11:34:53;;;;;;;3.20;3.00;;;;;;;;;;4191298;28;20044;-60
2023/03/18 11:37:13;;;;;;;2.38;2.15;;;;;;;;;;4192325;28;20079;-60
2023/03/18 11:39:36;;;;;;;2.53;2.38;;;;;;;;;;4191032;28;20083;-60
2023/03/18 11:41:58;;;;;;;1.95;1.85;;;;;;;;;;4191178;28;20059;-59
2023/03/18 11:44:19;;;;;;;2.45;2.38;;;;;;;;;;4192287;28;20040;-59
2023/03/18 11:46:47;;;;;;;2.70;2.50;;;;;;;;;;4191600;28;20264;-59
2023/03/18 11:49:12;;;;;;;3.17;3.08;;;;;;;;;;4189511;28;20055;-59
2023/03/18 11:51:52;;;;;;;2.40;2.40;;;;;;;;;;4191585;28;20035;-60
2023/03/18 11:54:15;;;;;;;2.47;2.28;;;;;;;;;;4193859;28;20118;-60
2023/03/18 11:56:42;;;;;;;2.20;2.20;;;;;;;;;;4189916;28;20063;-59
2023/03/18 11:59:12;;;;;;;2.83;2.72;;;;;;;;;;4190591;28;20086;-60
2023/03/18 12:01:43;;;;;;;2.33;2.22;;;;;;;;;;4192438;28;20055;-59
2023/03/18 12:04:09;;;;;;;1.77;1.77;;;;;;;;;;4191619;28;20052;-60
2023/03/18 12:06:30;;;;;;;1.52;1.42;;;;;;;;;;4191496;28;20044;-60
2023/03/18 12:09:00;;;;;;;2.58;1.60;;;;;;;;;;4190319;28;20040;-59
2023/03/18 12:11:43;;;;;;;1.60;1.60;;;;;;;;;;4193643;28;20048;-59
2023/03/18 12:14:19;;;;;;;1.98;1.92;;;;;;;;;;4190415;28;20082;-60
2023/03/18 12:16:51;;;;;;;1.67;1.67;;;;;;;;;;4189375;28;20048;-60
2023/03/18 12:19:12;;;;;;;1.17;1.17;;;;;;;;;;4189683;28;20082;-59
2023/03/18 12:21:35;;;;;;;1.30;1.30;;;;;;;;;;4190277;28;20135;-60
2023/03/18 12:24:07;;;;;;;1.60;1.60;;;;;;;;;;4189785;28;20155;-59
2023/03/18 12:26:31;;;;;;;1.50;1.40;;;;;;;;;;4190432;28;20052;-60
2023/03/18 12:28:51;;;;;;;1.20;1.20;;;;;;;;;;4190590;28;20060;-59
2023/03/18 12:31:30;;;;;;;1.30;1.30;;;;;;;;;;4190522;28;20063;-59
2023/03/18 12:33:55;;;;;;;1.67;1.20;;;;;;;;;;4190036;28;20039;-59
2023/03/18 12:36:34;;;;;;;1.40;1.30;;;;;;;;;;4190206;28;20101;-59
2023/03/18 12:39:14;;;;;;;1.10;1.10;;;;;;;;;;4189453;28;20090;-59
2023/03/18 12:41:38;;;;;;;1.60;1.50;;;;;;;;;;4191811;28;20082;-60
2023/03/18 12:44:04;;;;;;;1.30;1.30;;;;;;;;;;4190259;28;20154;-59
2023/03/18 12:46:26;;;;;;;1.20;1.20;;;;;;;;;;4191484;28;20052;-59
2023/03/18 12:48:52;;;;;;;1.27;1.27;;;;;;;;;;4190812;28;20090;-59
2023/03/18 12:51:15;;;;;;;1.02;1.02;;;;;;;;;;4191446;28;20086;-59
2023/03/18 12:53:37;;;;;;;1.17;1.17;;;;;;;;;;4190412;28;20067;-59
2023/03/18 12:56:01;;;;;;;1.30;1.30;;;;;;;;;;4191475;28;20274;-59
2023/03/18 12:58:26;;;;;;;1.40;1.40;;;;;;;;;;4190196;28;20147;-59
2023/03/18 13:01:05;;;;;;;1.70;1.60;;;;;;;;;;4190729;28;20083;-59
2023/03/18 13:03:33;;;;;;;1.75;1.67;;;;;;;;;;4190958;28;20398;-59
2023/03/18 13:05:56;;;;;;;1.63;1.63;;;;;;;;;;4188281;28;20116;-59
2023/03/18 13:08:23;;;;;;;1.40;1.30;;;;;;;;;;4191604;28;20103;-60
2023/03/18 13:10:46;;;;;;;1.40;1.40;;;;;;;;;;4189896;28;20079;-59
2023/03/18 13:13:09;;;;;;;1.50;1.50;;;;;;;;;;4192391;28;20056;-59
2023/03/18 13:15:29;;;;;;;1.85;1.77;;;;;;;;;;4191027;28;20048;-59
2023/03/18 13:17:54;;;;;;;1.40;1.30;;;;;;;;;;4192161;28;20117;-59
2023/03/18 13:20:21;;;;;;;1.65;1.60;;;;;;;;;;4189909;28;20084;-59
2023/03/18 13:22:47;;;;;;;1.23;1.23;;;;;;;;;;4190235;28;20040;-59
2023/03/18 13:25:07;;;;;;;1.40;1.30;;;;;;;;;;4191149;28;20047;-59
2023/03/18 13:27:50;;;;;;;1.20;1.20;;;;;;;;;;4192449;28;20043;-59
2023/03/18 13:30:17;;;;;;;1.20;1.20;;;;;;;;;;4190212;28;20087;-59
2023/03/18 13:33:01;;;;;;;1.50;1.50;;;;;;;;;;4189627;28;20080;-59
2023/03/18 13:35:43;;;;;;;1.40;1.40;;;;;;;;;;4192806;28;20074;-58
2023/03/18 13:38:04;;;;;;;5.57;2.10;;;;;;;;;;4189707;28;20068;-58
2023/03/18 13:40:51;;;;;;;1.73;1.63;;;;;;;;;;4189729;28;20048;-57
2023/03/18 13:43:14;;;;;;;1.90;1.30;;;;;;;;;;4188353;28;20316;-57
2023/03/18 13:45:34;;;;;;;;;;;;;;;;;;4188860;28;20087;-57
2023/03/18 13:47:57;;;;;;;1.98;1.98;;;;;;;;;;4188846;28;19923;-57
2023/03/18 13:50:17;;;;;;;2.25;2.15;;;;;;;;;;4188624;28;20059;-57
2023/03/18 13:52:42;;;;;;;1.30;1.20;;;;;;;;;;4188423;28;20055;-58
2023/03/18 13:55:12;;;;;;;1.67;1.58;;;;;;;;;;4189863;28;20278;-57
2023/03/18 13:57:35;;;;;;;1.65;1.65;;;;;;;;;;4188272;28;20056;-57
2023/03/18 14:00:19;;;;;;;1.75;1.45;;;;;;;;;;4189217;28;20049;-57
2023/03/18 14:02:40;;;;;;;2.25;2.15;;;;;;;;;;4190083;28;20104;-57
2023/03/18 14:05:01;;;;;;;3.35;1.88;;;;;;;;;;4189602;28;20236;-58